21kousinmaru — JD2168 — position and weather

sailwx.info

Track history (hours):
 
Tides and Currents Weather Stations Pressure Air Temp Water Temp Dewpoint Dewpoint Depression Visibility Wind Speed Wind Dir Waves Ship Positions

21kousinmaru

Last reported at 2015-Jul-30 04:27 UTC. Time now 2015-Aug-02 22:28 UTC.
Position N 35°04' E 139°35'.

Length 68 m; draft 4.4 m.

MMSI: 431501835.

Date/timePositionNaut miles runAvg speedWind from/ knotsBaromVisibWave heightAir tempDewpointWater temp
2015-Jul-30 04:27N 35°04' E 139°35'1112.4
2015-Jul-30 03:34N 35°11' E 139°45'1111.3
2015-Jul-30 02:34N 35°22' E 139°42'1212.2
2015-Jul-30 01:34N 35°30' E 139°53'7 7.3
2015-Jul-30 00:33N 35°31' E 140°02'0 0.0
2015-Jul-29 23:34N 35°31' E 140°02'0 0.0
2015-Jul-29 22:33N 35°31' E 140°02'2 1.8
2015-Jul-29 21:33N 35°31' E 140°00'5 5.1
2015-Jul-29 20:33N 35°29' E 139°55'0 0.0
2015-Jul-29 19:33N 35°29' E 139°55'0 0.0
2015-Jul-29 18:34N 35°29' E 139°55'0 0.0
2015-Jul-29 17:33N 35°29' E 139°55'0 0.0
2015-Jul-29 16:33N 35°29' E 139°55'0 0.0
2015-Jul-29 15:34N 35°29' E 139°55'0 0.0
2015-Jul-29 14:33N 35°29' E 139°55'0 0.0
2015-Jul-29 13:34N 35°29' E 139°55'0 0.0
2015-Jul-29 12:33N 35°29' E 139°55'0 0.0
2015-Jul-29 11:33N 35°29' E 139°55'0 0.0
2015-Jul-29 10:33N 35°29' E 139°55'0 0.0
2015-Jul-29 09:33N 35°29' E 139°55'1 0.9
2015-Jul-29 08:33N 35°29' E 139°54'1211.8
2015-Jul-29 07:33N 35°20' E 139°44'1111.5
2015-Jul-29 06:34N 35°08' E 139°45'24310.9
2015-Jul-28 08:18N 34°05' E 135°00'2611.7
2015-Jul-28 06:06N 34°30' E 135°02'610.4
2015-Jul-28 05:33N 34°36' E 135°02'1412.8
2015-Jul-28 04:29N 34°40' E 134°47'235 5.1
2015-Jul-26 06:16N 35°03' E 139°31'912.6
2015-Jul-26 05:33N 35°07' E 139°41'1111.2
2015-Jul-26 04:33N 35°18' E 139°44'1110.8
2015-Jul-26 03:33N 35°28' E 139°49'1211.5
2015-Jul-26 02:33N 35°31' E 140°02'0 0.3
2015-Jul-26 01:33N 35°31' E 140°02'0 0.0
2015-Jul-26 00:33N 35°31' E 140°02'0 0.0
2015-Jul-25 23:33N 35°31' E 140°02'1 0.8
2015-Jul-25 22:33N 35°31' E 140°02'6 5.7
2015-Jul-25 21:33N 35°29' E 139°55'0 0.0
2015-Jul-25 20:33N 35°29' E 139°55'0 0.0
2015-Jul-25 19:33N 35°29' E 139°55'0 0.0
2015-Jul-25 18:33N 35°29' E 139°55'0 0.0
2015-Jul-25 17:33N 35°29' E 139°55'0 0.0
2015-Jul-25 16:33N 35°29' E 139°55'6 5.7
2015-Jul-25 15:34N 35°26' E 139°49'1110.6
2015-Jul-25 14:33N 35°16' E 139°47'1212.2
2015-Jul-25 13:33N 35°04' E 139°45'68 7.1
2015-Jul-25 04:05N 35°54' E 140°41'11 1.9
2015-Jul-24 22:27N 36°04' E 140°43'7 7.2
2015-Jul-24 21:30N 35°58' E 140°47'3610.4
2015-Jul-24 18:04N 35°23' E 140°37'812.2
2015-Jul-24 17:24N 35°17' E 140°31'2211.9
2015-Jul-24 15:33N 35°01' E 140°12'1411.6
2015-Jul-24 14:22N 34°53' E 139°58'1111.9
2015-Jul-24 13:28N 34°55' E 139°46'1112.5
2015-Jul-24 12:33N 35°07' E 139°45'1211.9
2015-Jul-24 11:33N 35°19' E 139°44'1111.4
2015-Jul-24 10:33N 35°29' E 139°48'2 1.9
2015-Jul-24 09:33N 35°31' E 139°46'0 0.0
2015-Jul-24 08:33N 35°31' E 139°46'0 0.0
2015-Jul-24 07:33N 35°31' E 139°46'0 0.0
2015-Jul-24 06:33N 35°31' E 139°46'0 0.0
2015-Jul-24 05:33N 35°31' E 139°46'0 0.0
2015-Jul-24 04:33N 35°31' E 139°46'3 2.7
2015-Jul-24 03:33N 35°29' E 139°49'7 6.7
2015-Jul-24 02:33N 35°23' E 139°46'1111.5
2015-Jul-24 01:33N 35°11' E 139°47'1212.4
2015-Jul-24 00:33N 35°01' E 139°39'236 7.1
2015-Jul-22 15:20N 34°09' E 134°60'18 9.9
2015-Jul-22 13:32N 34°25' E 135°06'1212.4
2015-Jul-22 12:33N 34°32' E 135°19'4 0.7
2015-Jul-22 06:33N 34°33' E 135°24'1212.1
2015-Jul-22 05:33N 34°34' E 135°09'1211.0
2015-Jul-22 04:29N 34°37' E 134°55'  
Track history (hours):
 
Tides and Currents Weather Stations Pressure Air Temp Water Temp Dewpoint Dewpoint Depression Visibility Wind Speed Wind Dir Waves Ship Positions

21kousinmaru

Last reported at 2015-Jul-30 04:27 UTC. Time now 2015-Aug-02 22:28 UTC.
Position N 35°04' E 139°35'.

Length 68 m; draft 4.4 m.

MMSI: 431501835.

Date/timePositionNaut miles runAvg speedWind from/ knotsBaromVisibWave heightAir tempDewpointWater temp
2015-Jul-30 04:27N 35°04' E 139°35'1112.4
2015-Jul-30 03:34N 35°11' E 139°45'1111.3
2015-Jul-30 02:34N 35°22' E 139°42'1212.2
2015-Jul-30 01:34N 35°30' E 139°53'7 7.3
2015-Jul-30 00:33N 35°31' E 140°02'0 0.0
2015-Jul-29 23:34N 35°31' E 140°02'0 0.0
2015-Jul-29 22:33N 35°31' E 140°02'2 1.8
2015-Jul-29 21:33N 35°31' E 140°00'5 5.1
2015-Jul-29 20:33N 35°29' E 139°55'0 0.0
2015-Jul-29 19:33N 35°29' E 139°55'0 0.0
2015-Jul-29 18:34N 35°29' E 139°55'0 0.0
2015-Jul-29 17:33N 35°29' E 139°55'0 0.0
2015-Jul-29 16:33N 35°29' E 139°55'0 0.0
2015-Jul-29 15:34N 35°29' E 139°55'0 0.0
2015-Jul-29 14:33N 35°29' E 139°55'0 0.0
2015-Jul-29 13:34N 35°29' E 139°55'0 0.0
2015-Jul-29 12:33N 35°29' E 139°55'0 0.0
2015-Jul-29 11:33N 35°29' E 139°55'0 0.0
2015-Jul-29 10:33N 35°29' E 139°55'0 0.0
2015-Jul-29 09:33N 35°29' E 139°55'1 0.9
2015-Jul-29 08:33N 35°29' E 139°54'1211.8
2015-Jul-29 07:33N 35°20' E 139°44'1111.5
2015-Jul-29 06:34N 35°08' E 139°45'24310.9
2015-Jul-28 08:18N 34°05' E 135°00'2611.7
2015-Jul-28 06:06N 34°30' E 135°02'610.4
2015-Jul-28 05:33N 34°36' E 135°02'1412.8
2015-Jul-28 04:29N 34°40' E 134°47'235 5.1
2015-Jul-26 06:16N 35°03' E 139°31'912.6
2015-Jul-26 05:33N 35°07' E 139°41'1111.2
2015-Jul-26 04:33N 35°18' E 139°44'1110.8
2015-Jul-26 03:33N 35°28' E 139°49'1211.5
2015-Jul-26 02:33N 35°31' E 140°02'0 0.3
2015-Jul-26 01:33N 35°31' E 140°02'0 0.0
2015-Jul-26 00:33N 35°31' E 140°02'0 0.0
2015-Jul-25 23:33N 35°31' E 140°02'1 0.8
2015-Jul-25 22:33N 35°31' E 140°02'6 5.7
2015-Jul-25 21:33N 35°29' E 139°55'0 0.0
2015-Jul-25 20:33N 35°29' E 139°55'0 0.0
2015-Jul-25 19:33N 35°29' E 139°55'0 0.0
2015-Jul-25 18:33N 35°29' E 139°55'0 0.0
2015-Jul-25 17:33N 35°29' E 139°55'0 0.0
2015-Jul-25 16:33N 35°29' E 139°55'6 5.7
2015-Jul-25 15:34N 35°26' E 139°49'1110.6
2015-Jul-25 14:33N 35°16' E 139°47'1212.2
2015-Jul-25 13:33N 35°04' E 139°45'68 7.1
2015-Jul-25 04:05N 35°54' E 140°41'11 1.9
2015-Jul-24 22:27N 36°04' E 140°43'7 7.2
2015-Jul-24 21:30N 35°58' E 140°47'3610.4
2015-Jul-24 18:04N 35°23' E 140°37'812.2
2015-Jul-24 17:24N 35°17' E 140°31'2211.9
2015-Jul-24 15:33N 35°01' E 140°12'1411.6
2015-Jul-24 14:22N 34°53' E 139°58'1111.9
2015-Jul-24 13:28N 34°55' E 139°46'1112.5
2015-Jul-24 12:33N 35°07' E 139°45'1211.9
2015-Jul-24 11:33N 35°19' E 139°44'1111.4
2015-Jul-24 10:33N 35°29' E 139°48'2 1.9
2015-Jul-24 09:33N 35°31' E 139°46'0 0.0
2015-Jul-24 08:33N 35°31' E 139°46'0 0.0
2015-Jul-24 07:33N 35°31' E 139°46'0 0.0
2015-Jul-24 06:33N 35°31' E 139°46'0 0.0
2015-Jul-24 05:33N 35°31' E 139°46'0 0.0
2015-Jul-24 04:33N 35°31' E 139°46'3 2.7
2015-Jul-24 03:33N 35°29' E 139°49'7 6.7
2015-Jul-24 02:33N 35°23' E 139°46'1111.5
2015-Jul-24 01:33N 35°11' E 139°47'1212.4
2015-Jul-24 00:33N 35°01' E 139°39'236 7.1
2015-Jul-22 15:20N 34°09' E 134°60'18 9.9
2015-Jul-22 13:32N 34°25' E 135°06'1212.4
2015-Jul-22 12:33N 34°32' E 135°19'4 0.7
2015-Jul-22 06:33N 34°33' E 135°24'1212.1
2015-Jul-22 05:33N 34°34' E 135°09'1211.0
2015-Jul-22 04:29N 34°37' E 134°55'  

Dump ship's entire track history